РПИ Ростов-на-Дону

8 октября 2002 года в связи с концептуальными решениями реорганизации ЕС ОрВД и необходимостью оптимизации количества дочерних предприятий на основании распоряжения Министерства имущественных отношений Российской Федерации впервые на Юге России путем слияния ГУДП СКЦ АУВД «Стрела», ГУДП «Волгоградаэронавигация» и ГУДП «Кавказаэронавигация» было создано Государственное унитарное дочернее предприятие «Аэронавигация Юга».

ОСНОВНЫЕ ФУНКЦИИ ФИЛИАЛА: организация воздушного движения в границах ответственности; планирование и координирование использования воздушного пространства; информационное обеспечение пользователей воздушного пространства, предоставление средств радиотехнического обеспечения полётов, авиационной электросвязи; организация и осуществление технической эксплуатации и обслуживания объектов и средств радиотехнического обеспечения полётов, авиационной электросвязи и средств авиационной фиксированной спутниковой связи; контроль качества аэронавигационного обслуживания.

Обслуживаемая филиалом площадь, в воздушном пространстве которой решаются задачи ИВП и УВД, составляет 729 000 кв. км.

На территории Ростовской зоны ЕС ОрВД располагаются:

  • 104 воздушные трассы протяженностью 36504 км. (международных – 82, внутренних – 22);
  • 15 аэродромов гражданской авиации;
  • 37 аэродромов государственной авиации;
  • 3 аэродрома экспериментальной авиации;
  • 9 аэродромов ДОСААФ;
  • 151 посадочная площадка;
  • 177 градобойных  и 5 противолавинных позиций;
  • 47 авиационных и общевойсковых полигонов.

Филиал осуществляет аэронавигационное обслуживание в воздушном пространстве в границах Ростовской, Волгоградской, Астраханской областей, Краснодарского и Ставропольского краев, республик Адыгеи, Калмыкии, Ингушетии, Дагестана, Чеченской, Северной Осетии (Алания), Карачаево-Черкесской и Кабардино-Балкарской, а также над акваториями Азовского, Каспийского и Черного морей.

Сектора РЦ РПИ Ростов-на-Дону

Объединенный сектор РЦ - URRV_CTR - 122.900

Руководство

Grigori Badalov*

Куратор
Инструкторы РПИ
Denis Zhuchkov * (Controller)
Grigori Badalov (Instructor)
Valeriy Polostyanoy (Instructor)
Входит в состав
Кавказ

Диспетчеры РПИ

Диспетчер Рейтинг Допуски *
Piotr Masek Unknown URRV_CTR
Artem Smychkov Instructor URRV_CTR
Daniel Ryabkov Controller URRV_CTR  *
Denis Makosov Unknown URRV_CTR
Denis Zhuchkov Controller URRV_CTR
Grigori Badalov Instructor URRV_CTR
Ivan Chernov Senior Controller URRV_CTR
Kirill Ivanov Controller URRV_CTR
Mark Stolyar Controller URRV_CTR
Valeriy Polostyanoy Instructor URRV_CTR
Alexey Kshnyakin Unknown URSS_GND
Alexey Perov Student URSS_TWR!!!*, URSS_GND
Alikhan Aidarbek Student URSS_GND
Andrey Kharitonov Student URSS_GND*
Andrey Pelykh Student 2 URSS_TWR!!!*
Andrey Zonov Student 2 URSS_TWR!!!
Anton Nikolaev Student 2 URSS_APP*
Artem Tsendrovsky Senior Student URSS_APP, URWW_APP
Dmitry Sazonov Senior Student URSS_APP
Egor Panov Student URSS_GND
Fedor Banshchikov Student URRR_GND!!!, URSS_GND
Ilya Potapov Student URRP_GND, URSS_GND*
Ivan Klochkov Unknown URSS_TWR
Joury Roussine Unknown URRR_GND!!!
Maxim Baglikov Student 2 URSS_R_APP*, URSS_TWR!!!
Mikhail Kozlineev Student URSS_GND*
Mikhail Petrov Student URSS_TWR!!!*
Oleg Kabachenko Student 2 URSS_GND
Semen Vaysman Student URSS_GND
Sergey Milyaev Student URSS_GND
Sergey Scherbakov Unknown URRR_GND!!!, URSS_GND
Sergey Vologzhin Student 2 URSS_GND
Timofey Abramchuck Student URSS_GND
YAKOV PONOMARENKO Student 2 URSS_TWR!!!*

Аэропорты РПИ

ICAO Город Название Погода
URFF Симферополь Симферополь
URSS Сочи Сочи URSS 100930Z 16005MPS 9999 FEW080 15/08 Q1019 R06/010070 R02/////// NOSIG RMK R02/14003G06MPS QFE763
URRY
URKA Анапа Анапа URKA 100930Z 18009MPS 9999 SCT/// 16/09 Q1016 R22/010070 NOSIG RMK QFE757/1010
URWA Астрахань Астрахань URWA 100930Z 12007MPS CAVOK M02/M07 Q1031 R09/010070 NOSIG RMK QFE776/1034
URMO Владикавказ Беслан URMO 100930Z 31002MPS 9000 1100E BR BKN002 M02/M02 Q1021 R27/190060 NOSIG RMK QBB060 MT OBSC QFE721/0961
URWW Волгоград Волгоград URWW 100930Z 14008MPS 9999 BKN026 M03/M06 Q1026 R06/010070 TEMPO 1000 -FZDZ BR OVC003
URKG Геленджик Геленджик
URMG Грозный Грозный URMG 100930Z VRB01MPS 8000 OVC005 01/M01 Q1023 R26/190060 NOSIG RMK MT OBSC OBST OBSC QFE753/1004
URKK Краснодар Пашковский URKK 100930Z 11004MPS CAVOK 16/06 Q1018 R05R/290060 NOSIG RMK QFE760
URML Махачкала Уйташ URML 100930Z 15009MPS 9999 FEW009 SCT027 08/06 Q1025 R14/01//70 NOSIG RMK QFE769/1025
URMM Минеральные Воды Минеральные Воды URMM 100930Z 11003MPS 9999 OVC003 M01/M02 Q1023 R12/190160 NOSIG RMK MT OBSC OBST OBSC QFE739/0985
URMS Назрань Магас
URMN Нальчик Нальчик URMN 100930Z 00000MPS 0300 FZFG VV001 M02/M02 Q1021 R24/250150 NOSIG RMK QBB030 MT OBSC OBST OBSC QFE729
URRP Ростов-на-Дону Платов URRP 100930Z 12007MPS 9999 FEW/// BKN048 04/03 Q1020 R05/290053 TEMPO SCT003 BKN020CB RMK QFE760/1014
URRR Ростов-на-Дону Ростов-на-Дону
URMT Ставрополь Ставрополь URMT 100930Z 12004MPS CAVOK 04/M00 Q1020 R07/010070 NOSIG RMK QFE725
URWI Элиста Элиста URWI 100930Z 14009MPS 9999 BKN006 01/M01 Q1025 R09/010065 NOSIG